Time;durP1;ratioP1;P1;durP2;ratioP2;P2;SDS_P1;SDS_P2;PMS_P1;PMS_P2;Temp;Humidity;BMP_temperature;BMP_pressure;BME280_temperature;BME280_humidity;BME280_pressure;Samples;Min_cycle;Max_cycle;Signal;HPM_P1;HPM_P2
2022/08/15 00:00:21;;;;;;;4.93;4.67;;;25.10;43.10;;;;;;5074403;27;20479;-61
2022/08/15 00:02:48;;;;;;;4.60;4.30;;;25.10;43.10;;;;;;5073668;27;20227;-68
2022/08/15 00:05:18;;;;;;;5.10;4.90;;;25.10;43.10;;;;;;5063509;27;20232;-59
2022/08/15 00:07:44;;;;;;;5.07;4.77;;;25.10;43.10;;;;;;5061906;28;20528;-64
2022/08/15 00:10:11;;;;;;;4.73;4.53;;;25.10;43.10;;;;;;5078103;27;20521;-60
2022/08/15 00:12:39;;;;;;;4.40;4.20;;;25.10;43.10;;;;;;5081259;27;20231;-63
2022/08/15 00:15:15;;;;;;;4.60;4.37;;;25.10;43.20;;;;;;5080265;27;20460;-61
2022/08/15 00:17:42;;;;;;;4.90;4.40;;;25.10;43.10;;;;;;5072613;28;20452;-61
2022/08/15 00:20:10;;;;;;;5.37;5.07;;;25.10;43.20;;;;;;5078639;27;20546;-59
2022/08/15 00:22:44;;;;;;;4.30;4.00;;;25.10;43.10;;;;;;5080417;27;20518;-63
2022/08/15 00:25:10;;;;;;;4.50;4.30;;;25.10;43.10;;;;;;5079345;28;20468;-59
2022/08/15 00:27:35;;;;;;;4.70;4.50;;;25.10;43.10;;;;;;5074136;28;20799;-58
2022/08/15 00:30:03;;;;;;;4.80;4.60;;;25.10;43.10;;;;;;5079021;27;20230;-69
2022/08/15 00:32:29;;;;;;;5.30;5.00;;;25.10;43.10;;;;;;5072543;27;20270;-60
2022/08/15 00:34:54;;;;;;;5.23;4.90;;;25.10;43.10;;;;;;5076065;27;20508;-58
2022/08/15 00:37:20;;;;;;;4.63;4.43;;;25.10;43.10;;;;;;5069042;27;20214;-62
2022/08/15 00:39:46;;;;;;;4.80;4.60;;;25.10;43.10;;;;;;5070648;27;20695;-62
2022/08/15 00:42:12;;;;;;;5.03;4.77;;;25.10;43.10;;;;;;5074299;27;20620;-63
2022/08/15 00:44:44;;;;;;;4.77;4.57;;;25.10;43.10;;;;;;5078635;27;20215;-58
2022/08/15 00:47:13;;;;;;;4.70;4.50;;;25.10;43.10;;;;;;5076163;28;20679;-67
2022/08/15 00:49:40;;;;;;;4.70;4.50;;;25.10;43.10;;;;;;5079793;27;20459;-62
2022/08/15 00:52:10;;;;;;;4.97;4.67;;;25.10;43.10;;;;;;5076353;27;20814;-71
2022/08/15 00:54:44;;;;;;;4.23;4.03;;;25.10;43.10;;;;;;5078179;28;20536;-67
2022/08/15 00:57:18;;;;;;;4.90;4.70;;;25.00;43.00;;;;;;5066518;27;20580;-66
2022/08/15 00:59:48;;;;;;;4.60;4.20;;;25.10;43.00;;;;;;5075190;27;20453;-66
2022/08/15 01:02:17;;;;;;;4.73;4.53;;;25.10;43.10;;;;;;5069487;27;21123;-70
2022/08/15 01:04:44;;;;;;;4.80;4.60;;;25.10;43.00;;;;;;5074927;28;20462;-58
2022/08/15 01:07:10;;;;;;;5.10;4.80;;;25.10;43.10;;;;;;5067136;28;20464;-65
2022/08/15 01:09:36;;;;;;;4.70;4.40;;;25.10;43.10;;;;;;5061166;27;20485;-71
2022/08/15 01:12:22;;;;;;;4.57;4.37;;;25.10;43.10;;;;;;5077138;27;21405;-62
2022/08/15 01:14:52;;;;;;;4.60;4.40;;;25.10;43.00;;;;;;5072030;27;21153;-62
2022/08/15 01:17:20;;;;;;;4.83;4.60;;;25.10;43.00;;;;;;5078715;28;20532;-60
2022/08/15 01:19:50;;;;;;;4.47;4.27;;;25.00;42.90;;;;;;5082951;28;20493;-58
2022/08/15 01:22:28;;;;;;;4.33;4.13;;;25.00;43.00;;;;;;5068187;28;20555;-59
2022/08/15 01:25:03;;;;;;;4.60;4.40;;;25.10;43.00;;;;;;5070707;27;20568;-61
2022/08/15 01:27:34;;;;;;;5.10;4.90;;;25.00;42.90;;;;;;5068551;28;20771;-61
2022/08/15 01:30:01;;;;;;;4.00;3.80;;;25.10;43.00;;;;;;5075687;28;20980;-58
2022/08/15 01:32:27;;;;;;;4.33;4.13;;;25.00;42.90;;;;;;5063549;28;21763;-59
2022/08/15 01:34:52;;;;;;;4.53;4.33;;;25.00;42.90;;;;;;5078075;27;20457;-60
2022/08/15 01:37:19;;;;;;;4.17;3.87;;;25.00;42.90;;;;;;5066582;28;20216;-59
2022/08/15 01:39:54;;;;;;;4.60;4.30;;;25.00;42.90;;;;;;5078727;27;20303;-59
2022/08/15 01:42:24;;;;;;;4.30;4.10;;;25.10;43.00;;;;;;5069694;27;20452;-65
2022/08/15 01:45:06;;;;;;;4.03;3.73;;;25.00;42.90;;;;;;5080478;27;20523;-63
2022/08/15 01:47:46;;;;;;;5.10;4.80;;;25.10;42.90;;;;;;5071320;28;20971;-71
2022/08/15 01:50:39;;;;;;;3.90;3.70;;;25.10;42.90;;;;;;5071639;27;20456;-60
2022/08/15 01:53:13;;;;;;;4.07;3.87;;;25.00;42.80;;;;;;5076024;28;20433;-59
2022/08/15 01:56:02;;;;;;;4.33;4.13;;;25.00;42.80;;;;;;5068900;27;20461;-61
2022/08/15 01:58:28;;;;;;;4.10;3.90;;;25.00;42.80;;;;;;5065919;27;20544;-61
2022/08/15 02:00:55;;;;;;;4.27;4.07;;;25.00;42.80;;;;;;5072216;28;20855;-58
2022/08/15 02:03:33;;;;;;;4.37;4.17;;;25.00;42.80;;;;;;5075121;28;20282;-58
2022/08/15 02:06:22;;;;;;;4.50;4.30;;;25.00;42.80;;;;;;5066551;27;20579;-58
2022/08/15 02:08:51;;;;;;;4.00;3.80;;;25.00;42.80;;;;;;5067243;27;20549;-60
2022/08/15 02:11:22;;;;;;;4.07;3.87;;;25.00;42.80;;;;;;5077756;27;20472;-69
2022/08/15 02:13:49;;;;;;;3.93;3.73;;;25.00;42.70;;;;;;5080579;28;20464;-61
2022/08/15 02:16:17;;;;;;;3.77;3.57;;;25.00;42.70;;;;;;5061520;28;20437;-66
2022/08/15 02:18:43;;;;;;;3.97;3.77;;;25.00;43.50;;;;;;5076207;27;20817;-63
2022/08/15 02:21:09;;;;;;;4.10;3.90;;;25.00;42.70;;;;;;5076796;27;20472;-63
2022/08/15 02:23:35;;;;;;;3.50;3.30;;;25.00;42.70;;;;;;5074382;27;20250;-72
2022/08/15 02:26:03;;;;;;;4.37;4.10;;;25.00;42.70;;;;;;5064512;27;20928;-59
2022/08/15 02:28:29;;;;;;;4.80;4.60;;;25.00;42.70;;;;;;5078617;27;20695;-58
2022/08/15 02:30:54;;;;;;;3.83;3.63;;;25.00;42.70;;;;;;5079170;27;20492;-65
2022/08/15 02:33:21;;;;;;;4.03;3.83;;;25.00;42.70;;;;;;5075498;27;20228;-60
2022/08/15 02:35:47;;;;;;;4.03;3.83;;;25.00;42.70;;;;;;5078303;27;20228;-61
2022/08/15 02:38:13;;;;;;;4.00;3.80;;;25.00;42.70;;;;;;5078307;27;20445;-69
2022/08/15 02:40:39;;;;;;;4.50;4.30;;;25.00;42.70;;;;;;5074246;27;20945;-59
2022/08/15 02:43:08;;;;;;;3.80;3.60;;;25.00;42.70;;;;;;5069062;27;20219;-63
2022/08/15 02:45:37;;;;;;;3.50;3.37;;;25.00;42.70;;;;;;5073024;27;20216;-59
2022/08/15 02:48:08;;;;;;;4.27;4.07;;;25.10;42.70;;;;;;5079025;28;20456;-59
2022/08/15 02:50:35;;;;;;;3.80;3.60;;;25.00;42.60;;;;;;5078646;27;20462;-59
2022/08/15 02:53:11;;;;;;;3.90;3.70;;;25.00;42.60;;;;;;5074035;28;20488;-62
2022/08/15 02:55:36;;;;;;;3.53;3.33;;;25.00;42.60;;;;;;5063042;28;20539;-58
2022/08/15 02:58:03;;;;;;;3.20;3.03;;;25.00;42.60;;;;;;5079982;28;20857;-68
2022/08/15 03:00:29;;;;;;;3.70;3.40;;;25.00;42.60;;;;;;5079386;27;20227;-59
2022/08/15 03:03:00;;;;;;;4.20;4.00;;;25.00;43.30;;;;;;5079220;28;21167;-61
2022/08/15 03:05:29;;;;;;;3.67;3.47;;;25.00;42.50;;;;;;5078631;28;20514;-65
2022/08/15 03:07:55;;;;;;;3.33;3.13;;;25.00;42.60;;;;;;5076116;27;20462;-61
2022/08/15 03:10:21;;;;;;;3.27;3.13;;;25.00;42.50;;;;;;5078321;27;20453;-65
2022/08/15 03:12:53;;;;;;;3.50;3.30;;;25.00;42.50;;;;;;5079629;28;20224;-59
2022/08/15 03:15:32;;;;;;;3.73;3.53;;;25.00;42.50;;;;;;5071987;27;20225;-61
2022/08/15 03:17:58;;;;;;;4.27;3.97;;;25.00;42.50;;;;;;5066842;27;20563;-60
2022/08/15 03:20:24;;;;;;;3.63;3.43;;;25.00;42.50;;;;;;5071839;27;20501;-58
2022/08/15 03:22:52;;;;;;;3.40;3.20;;;25.00;42.50;;;;;;5070967;27;20590;-69
2022/08/15 03:25:20;;;;;;;3.50;3.20;;;25.00;42.50;;;;;;5079116;27;20510;-60
2022/08/15 03:27:45;;;;;;;3.33;3.13;;;25.00;42.50;;;;;;5080651;27;21024;-60
2022/08/15 03:30:12;;;;;;;3.30;3.10;;;25.00;42.50;;;;;;5080188;27;20627;-67
2022/08/15 03:32:48;;;;;;;2.40;2.30;;;25.00;42.40;;;;;;5071129;27;20727;-59
2022/08/15 03:35:14;;;;;;;3.23;3.03;;;25.10;42.40;;;;;;5087275;27;20455;-58
2022/08/15 03:37:40;;;;;;;2.97;2.87;;;25.00;42.40;;;;;;5078383;27;20722;-66
2022/08/15 03:40:07;;;;;;;3.03;2.83;;;25.00;42.40;;;;;;5078909;27;20239;-60
2022/08/15 03:42:33;;;;;;;3.40;3.20;;;25.00;42.40;;;;;;5075875;27;20449;-59
2022/08/15 03:45:02;;;;;;;3.23;3.13;;;25.00;42.30;;;;;;5082079;27;20506;-66
2022/08/15 03:47:29;;;;;;;3.43;3.23;;;25.00;42.30;;;;;;5075116;27;20544;-59
2022/08/15 03:49:55;;;;;;;3.03;2.87;;;25.00;42.30;;;;;;5083710;27;20469;-61
2022/08/15 03:52:21;;;;;;;3.67;3.40;;;25.00;42.30;;;;;;5079128;27;20453;-58
2022/08/15 03:54:47;;;;;;;3.30;3.20;;;25.00;42.30;;;;;;5081492;27;20989;-58
2022/08/15 03:57:12;;;;;;;2.80;2.70;;;25.00;42.40;;;;;;5078851;27;20228;-62
2022/08/15 03:59:38;;;;;;;2.73;2.63;;;25.00;42.30;;;;;;5080241;27;20236;-68
2022/08/15 04:02:10;;;;;;;3.23;3.03;;;25.00;42.30;;;;;;5077247;27;20241;-58
2022/08/15 04:04:36;;;;;;;2.90;2.80;;;25.00;42.30;;;;;;5079391;27;22227;-58
2022/08/15 04:07:03;;;;;;;3.40;3.20;;;25.00;42.30;;;;;;5082108;27;21225;-58
2022/08/15 04:09:29;;;;;;;3.10;2.90;;;25.00;42.30;;;;;;5075741;27;20246;-58
2022/08/15 04:11:55;;;;;;;3.20;3.00;;;25.00;42.30;;;;;;5081566;27;20456;-69
2022/08/15 04:14:21;;;;;;;3.10;3.00;;;25.00;42.30;;;;;;5077216;27;20990;-65
2022/08/15 04:16:47;;;;;;;3.37;3.17;;;25.00;42.30;;;;;;5075744;28;20551;-65
2022/08/15 04:19:15;;;;;;;3.23;3.13;;;25.00;42.30;;;;;;5077311;27;20256;-63
2022/08/15 04:21:44;;;;;;;3.07;2.97;;;25.00;42.30;;;;;;5074893;27;20870;-62
2022/08/15 04:24:10;;;;;;;4.07;3.57;;;25.00;42.30;;;;;;5070388;27;20580;-59
2022/08/15 04:26:35;;;;;;;3.80;3.50;;;25.00;42.30;;;;;;5076037;28;20481;-62
2022/08/15 04:29:02;;;;;;;3.40;3.20;;;25.00;42.30;;;;;;5072565;28;20867;-61
2022/08/15 04:31:27;;;;;;;2.77;2.67;;;25.00;42.30;;;;;;5068942;28;20213;-59
2022/08/15 04:33:53;;;;;;;3.43;3.23;;;25.10;42.40;;;;;;5073734;27;20465;-70
2022/08/15 04:36:20;;;;;;;3.50;3.30;;;25.10;42.40;;;;;;5063713;27;20297;-63
2022/08/15 04:38:47;;;;;;;3.37;3.17;;;25.10;42.30;;;;;;5073652;27;20225;-64
2022/08/15 04:41:15;;;;;;;3.20;3.10;;;25.10;42.30;;;;;;5067378;27;20504;-63
2022/08/15 04:43:42;;;;;;;3.30;3.10;;;25.10;42.40;;;;;;5078364;27;20510;-60
2022/08/15 04:46:08;;;;;;;3.53;3.33;;;25.20;42.30;;;;;;5081205;27;20794;-61
2022/08/15 04:48:34;;;;;;;3.80;3.27;;;25.20;42.30;;;;;;5077408;28;20445;-65
2022/08/15 04:51:02;;;;;;;3.50;3.40;;;25.20;42.40;;;;;;5071089;28;20479;-60
2022/08/15 04:53:33;;;;;;;3.40;3.20;;;25.20;42.30;;;;;;5071580;27;20290;-59
2022/08/15 04:56:00;;;;;;;3.30;3.10;;;25.20;42.30;;;;;;5064649;28;20539;-58
2022/08/15 04:58:26;;;;;;;6.03;3.03;;;25.20;42.30;;;;;;5077908;27;20965;-64
2022/08/15 05:01:02;;;;;;;2.77;2.67;;;25.20;42.30;;;;;;5077731;28;20472;-65
2022/08/15 05:03:29;;;;;;;3.33;3.13;;;25.20;42.20;;;;;;5069451;28;20233;-63
2022/08/15 05:06:02;;;;;;;3.00;2.90;;;25.20;42.30;;;;;;5075182;27;20542;-59
2022/08/15 05:08:30;;;;;;;3.70;3.47;;;25.20;42.20;;;;;;5068219;27;20504;-62
2022/08/15 05:11:08;;;;;;;3.13;2.90;;;25.20;42.30;;;;;;5075462;28;20465;-61
2022/08/15 05:13:37;;;;;;;3.30;3.10;;;25.20;42.20;;;;;;5073272;27;20460;-59
2022/08/15 05:16:07;;;;;;;3.20;3.00;;;25.20;42.30;;;;;;5073643;28;20448;-63
2022/08/15 05:18:34;;;;;;;3.17;2.97;;;25.30;42.30;;;;;;5052860;28;20457;-69
2022/08/15 05:20:59;;;;;;;3.10;2.90;;;25.20;42.30;;;;;;5056749;27;20485;-62
2022/08/15 05:23:26;;;;;;;3.23;3.07;;;25.20;42.30;;;;;;5074429;27;20469;-69
2022/08/15 05:25:56;;;;;;;3.83;3.07;;;25.20;42.50;;;;;;5063603;27;20220;-63
2022/08/15 05:28:23;;;;;;;3.33;2.93;;;25.20;42.50;;;;;;5068251;27;20533;-61
2022/08/15 05:30:51;;;;;;;2.83;2.63;;;25.20;42.50;;;;;;5068918;27;20568;-60
2022/08/15 05:33:20;;;;;;;2.53;2.43;;;25.20;42.40;;;;;;5060665;27;21358;-66
2022/08/15 05:35:49;;;;;;;2.83;2.73;;;25.20;42.30;;;;;;5067388;27;20562;-62
2022/08/15 05:38:18;;;;;;;2.70;2.60;;;25.20;42.40;;;;;;5073323;28;20535;-68
2022/08/15 05:41:01;;;;;;;2.83;2.73;;;25.20;42.30;;;;;;5072674;28;20458;-60
2022/08/15 05:43:52;;;;;;;2.70;2.60;;;25.20;42.30;;;;;;5067341;27;20525;-59
2022/08/15 05:46:26;;;;;;;2.70;2.57;;;25.20;42.20;;;;;;5078166;28;20456;-59
2022/08/15 05:49:02;;;;;;;2.80;2.70;;;25.20;42.10;;;;;;5078419;27;20467;-65
2022/08/15 05:51:47;;;;;;;2.80;2.60;;;25.20;42.10;;;;;;5071602;27;20482;-61
2022/08/15 05:54:36;;;;;;;3.03;2.83;;;25.30;42.10;;;;;;5076876;27;20452;-64
2022/08/15 05:57:14;;;;;;;3.13;2.20;;;25.30;42.00;;;;;;5075814;28;20457;-63
2022/08/15 05:59:44;;;;;;;2.80;2.70;;;25.30;42.10;;;;;;5074906;28;20449;-61
2022/08/15 06:02:27;;;;;;;2.20;2.10;;;25.20;41.90;;;;;;5074135;28;20461;-59
2022/08/15 06:05:13;;;;;;;2.70;2.60;;;25.30;41.90;;;;;;5069622;28;20457;-61
2022/08/15 06:07:45;;;;;;;2.77;2.57;;;25.20;41.80;;;;;;5082081;27;20444;-59
2022/08/15 06:10:25;;;;;;;2.53;2.33;;;25.30;41.80;;;;;;5081127;27;21015;-59
2022/08/15 06:12:59;;;;;;;2.43;2.33;;;25.20;41.60;;;;;;5085189;27;20448;-59
2022/08/15 06:15:37;;;;;;;3.03;2.93;;;25.20;41.50;;;;;;5082627;27;20467;-60
2022/08/15 06:18:08;;;;;;;3.97;2.43;;;25.30;41.50;;;;;;5081861;27;20505;-75
2022/08/15 06:21:03;;;;;;;2.70;2.50;;;25.30;41.30;;;;;;5081772;27;20465;-64
2022/08/15 06:23:34;;;;;;;1.90;1.80;;;25.30;41.30;;;;;;5075655;28;20440;-59
2022/08/15 06:26:29;;;;;;;2.30;2.10;;;25.30;41.10;;;;;;5082119;27;20448;-61
2022/08/15 06:29:44;;;;;;;2.90;2.70;;;25.30;41.00;;;;;;5073456;27;20568;-62
2022/08/15 06:32:21;;;;;;;2.67;2.37;;;25.30;40.90;;;;;;5065991;28;20900;-61
2022/08/15 06:35:17;;;;;;;2.60;2.40;;;25.30;40.90;;;;;;5077584;28;21015;-63
2022/08/15 06:37:52;;;;;;;2.33;2.13;;;25.30;40.80;;;;;;5072289;28;20465;-63
2022/08/15 06:40:45;;;;;;;3.00;2.63;;;25.30;40.70;;;;;;5079437;27;20461;-61
2022/08/15 06:43:11;;;;;;;3.17;2.97;;;25.30;40.50;;;;;;5080327;27;20491;-59
2022/08/15 06:45:41;;;;;;;4.10;2.23;;;25.30;40.50;;;;;;5078952;27;21018;-61
2022/08/15 06:48:17;;;;;;;3.60;2.80;;;25.30;41.10;;;;;;5073113;27;20488;-69
2022/08/15 06:50:51;;;;;;;2.90;2.50;;;25.30;40.40;;;;;;5072457;27;20453;-60
2022/08/15 06:53:36;;;;;;;2.77;2.60;;;25.30;40.30;;;;;;5070531;27;20569;-61
2022/08/15 06:56:52;;;;;;;5.00;2.37;;;25.30;40.30;;;;;;5077496;28;20453;-62
2022/08/15 06:59:52;;;;;;;2.57;2.37;;;25.30;40.30;;;;;;5051773;28;21462;-61
2022/08/15 07:02:43;;;;;;;2.90;2.70;;;25.30;40.40;;;;;;5047800;28;20531;-59
2022/08/15 07:05:41;;;;;;;3.20;2.83;;;25.30;40.60;;;;;;5066834;27;20510;-65
2022/08/15 07:08:25;;;;;;;2.50;2.30;;;25.30;40.70;;;;;;5079086;28;20460;-67
2022/08/15 07:11:09;;;;;;;2.70;2.50;;;25.30;40.90;;;;;;5074459;28;20539;-65
2022/08/15 07:13:52;;;;;;;2.67;2.47;;;25.30;41.00;;;;;;5073614;28;20448;-66
2022/08/15 07:16:27;;;;;;;2.60;2.50;;;25.30;41.10;;;;;;5073448;27;20441;-68
2022/08/15 07:18:56;;;;;;;3.03;2.73;;;25.30;41.20;;;;;;5074087;27;20476;-67
2022/08/15 07:21:22;;;;;;;2.50;2.40;;;25.30;41.30;;;;;;5071738;27;20469;-64
2022/08/15 07:24:11;;;;;;;2.80;2.60;;;25.30;41.30;;;;;;5074642;28;20473;-63
2022/08/15 07:26:49;;;;;;;2.00;1.90;;;25.30;41.30;;;;;;5072967;27;20943;-64
2022/08/15 07:29:34;;;;;;;2.70;2.50;;;25.30;41.40;;;;;;5064974;27;20472;-61
2022/08/15 07:32:25;;;;;;;2.43;2.23;;;25.30;41.50;;;;;;5063963;27;20556;-64
2022/08/15 07:34:59;;;;;;;2.60;2.40;;;25.30;41.50;;;;;;5058185;27;20461;-61
2022/08/15 07:37:34;;;;;;;2.87;2.67;;;25.30;41.60;;;;;;5070155;27;20461;-63
2022/08/15 07:40:06;;;;;;;2.93;2.73;;;25.30;41.70;;;;;;5069277;27;20459;-62
2022/08/15 07:42:41;;;;;;;2.30;2.10;;;25.30;41.70;;;;;;5071488;27;20947;-61
2022/08/15 07:45:15;;;;;;;2.60;2.40;;;25.30;41.80;;;;;;5072932;27;20451;-74
2022/08/15 07:47:57;;;;;;;3.03;2.30;;;25.30;41.80;;;;;;5078250;27;20441;-67
2022/08/15 07:50:37;;;;;;;3.93;2.37;;;25.30;41.90;;;;;;5073965;27;20484;-63
2022/08/15 07:53:20;;;;;;;2.87;2.67;;;25.30;41.90;;;;;;5076280;27;20456;-67
2022/08/15 07:56:05;;;;;;;2.53;2.43;;;25.30;41.90;;;;;;5076688;27;20452;-59
2022/08/15 07:58:33;;;;;;;3.50;3.20;;;25.30;42.00;;;;;;5070528;27;21158;-60
2022/08/15 08:01:12;;;;;;;3.70;3.20;;;25.30;41.80;;;;;;5062188;27;20522;-67
2022/08/15 08:03:42;;;;;;;2.73;2.60;;;25.30;41.80;;;;;;5074095;28;20487;-64
2022/08/15 08:06:25;;;;;;;2.63;2.53;;;25.30;41.80;;;;;;5071384;28;20834;-64
2022/08/15 08:09:02;;;;;;;2.80;2.60;;;25.30;41.80;;;;;;5074277;28;20461;-64
2022/08/15 08:12:07;;;;;;;2.27;2.17;;;25.30;41.80;;;;;;5071779;27;20465;-67
2022/08/15 08:14:54;;;;;;;2.67;2.57;;;25.30;42.00;;;;;;5050752;28;21727;-65
2022/08/15 08:17:36;;;;;;;2.60;2.50;;;25.20;41.90;;;;;;5077044;27;20437;-61
2022/08/15 08:20:03;;;;;;;3.10;2.50;;;25.20;42.70;;;;;;5071212;27;20465;-60
2022/08/15 08:22:51;;;;;;;2.77;2.53;;;25.20;42.00;;;;;;5064356;27;20481;-59
2022/08/15 08:25:29;;;;;;;2.50;2.40;;;25.20;42.00;;;;;;5087543;28;20860;-59
2022/08/15 08:28:00;;;;;;;2.70;2.50;;;25.20;42.00;;;;;;5069046;28;20448;-63
2022/08/15 08:30:36;;;;;;;2.40;2.30;;;25.20;42.10;;;;;;5077866;27;20587;-65
2022/08/15 08:33:14;;;;;;;2.40;2.30;;;25.20;42.10;;;;;;5074964;28;20928;-75
2022/08/15 08:35:55;;;;;;;2.97;2.77;;;25.20;42.10;;;;;;5080438;28;20456;-60
2022/08/15 08:38:46;;;;;;;2.33;2.20;;;25.20;42.10;;;;;;5079450;27;20495;-62
2022/08/15 08:41:36;;;;;;;4.07;2.70;;;25.20;42.10;;;;;;5076687;27;20584;-63
2022/08/15 08:44:23;;;;;;;2.63;2.50;;;25.20;42.20;;;;;;5071683;28;20768;-65
2022/08/15 08:47:06;;;;;;;2.70;2.50;;;25.20;42.20;;;;;;5062583;28;20454;-61
2022/08/15 08:50:08;;;;;;;3.03;2.83;;;25.20;42.20;;;;;;5061148;27;20880;-59
2022/08/15 08:52:41;;;;;;;2.97;2.77;;;25.20;42.20;;;;;;5072733;28;20441;-75
2022/08/15 08:55:10;;;;;;;2.43;2.33;;;25.20;42.30;;;;;;5084457;27;21177;-67
2022/08/15 08:57:46;;;;;;;2.50;2.30;;;25.20;42.30;;;;;;5070013;28;20452;-60
2022/08/15 09:00:18;;;;;;;3.10;2.80;;;25.20;42.30;;;;;;5076829;28;20448;-64
2022/08/15 09:02:48;;;;;;;2.70;2.50;;;25.20;42.40;;;;;;5074127;27;20577;-66
2022/08/15 09:05:20;;;;;;;2.77;2.67;;;25.20;42.50;;;;;;5073325;28;20457;-73
2022/08/15 09:07:54;;;;;;;2.30;2.20;;;25.20;42.50;;;;;;5068354;28;20470;-61
2022/08/15 09:10:32;;;;;;;2.50;2.40;;;25.20;42.60;;;;;;5074380;28;20595;-68
2022/08/15 09:15:47;;;;;;;2.57;2.37;;;25.20;42.60;;;;;;5070359;27;20495;-61
2022/08/15 09:18:19;;;;;;;2.90;2.53;;;25.20;42.60;;;;;;5080629;27;20449;-63
2022/08/15 09:20:46;;;;;;;2.50;2.40;;;25.10;42.60;;;;;;5076198;28;20457;-61
2022/08/15 09:23:13;;;;;;;3.03;2.80;;;25.10;42.60;;;;;;5078540;28;20539;-62
2022/08/15 09:25:54;;;;;;;3.77;3.40;;;25.20;42.80;;;;;;5071005;28;20454;-62
2022/08/15 09:28:34;;;;;;;2.60;2.40;;;25.20;42.80;;;;;;5081066;28;20939;-63
2022/08/15 09:31:04;;;;;;;2.17;2.07;;;25.10;42.70;;;;;;5065687;28;20457;-69
2022/08/15 09:33:41;;;;;;;2.40;2.30;;;25.10;42.80;;;;;;5076794;28;20927;-65
2022/08/15 09:36:35;;;;;;;3.20;2.50;;;25.10;42.80;;;;;;5074492;28;20451;-67
2022/08/15 09:39:27;;;;;;;2.93;2.73;;;25.10;42.80;;;;;;5066412;28;20465;-60
2022/08/15 09:42:13;;;;;;;2.83;2.63;;;25.10;42.80;;;;;;5066512;27;20469;-59
2022/08/15 09:44:42;;;;;;;5.20;2.57;;;25.10;42.80;;;;;;5064864;27;20452;-64
2022/08/15 09:47:39;;;;;;;3.47;3.17;;;25.10;42.80;;;;;;5080368;27;21191;-70
2022/08/15 09:50:20;;;;;;;3.83;3.07;;;25.10;42.90;;;;;;5075200;27;20490;-60
2022/08/15 09:52:52;;;;;;;3.23;2.80;;;25.10;43.00;;;;;;5078393;27;20441;-66
2022/08/15 09:55:21;;;;;;;6.60;2.93;;;25.10;42.90;;;;;;5075847;27;20445;-71
2022/08/15 09:57:51;;;;;;;2.80;2.60;;;25.10;43.00;;;;;;5078077;27;21821;-65
2022/08/15 10:00:24;;;;;;;2.60;2.40;;;25.10;42.90;;;;;;5071694;28;20468;-63
2022/08/15 10:02:52;;;;;;;2.83;2.73;;;25.10;43.00;;;;;;5076468;28;21022;-65
2022/08/15 10:05:42;;;;;;;2.70;2.60;;;25.10;43.70;;;;;;5077583;28;21181;-67
2022/08/15 10:08:09;;;;;;;2.77;2.60;;;25.10;43.00;;;;;;5075429;27;20521;-67
2022/08/15 10:10:34;;;;;;;2.87;2.70;;;25.10;43.00;;;;;;5071648;27;20444;-61
2022/08/15 10:13:13;;;;;;;3.70;3.03;;;25.10;43.00;;;;;;5074396;27;20461;-61
2022/08/15 10:15:47;;;;;;;2.63;2.43;;;25.10;43.00;;;;;;5072842;27;20792;-61
2022/08/15 10:18:22;;;;;;;3.13;2.93;;;25.10;42.90;;;;;;5071662;27;20448;-63
2022/08/15 10:21:18;;;;;;;6.20;2.77;;;25.10;42.90;;;;;;5068897;27;20547;-61
2022/08/15 10:23:49;;;;;;;2.57;2.47;;;25.10;43.00;;;;;;5072726;28;20498;-65
2022/08/15 10:26:20;;;;;;;3.30;3.10;;;25.10;43.10;;;;;;5102380;27;20453;-64
2022/08/15 10:28:59;;;;;;;2.57;2.37;;;25.10;43.10;;;;;;5077475;28;20440;-62
2022/08/15 10:31:28;;;;;;;3.80;3.50;;;25.10;43.10;;;;;;5077660;28;20865;-60
2022/08/15 10:33:58;;;;;;;3.20;3.10;;;25.10;43.20;;;;;;5064304;28;20967;-61
2022/08/15 10:36:30;;;;;;;3.17;2.97;;;25.10;43.30;;;;;;5076308;28;20464;-61
2022/08/15 10:39:47;;;;;;;2.83;2.63;;;25.10;43.30;;;;;;5075288;27;20459;-60
2022/08/15 10:42:42;;;;;;;3.20;2.80;;;25.20;43.40;;;;;;5039985;28;20455;-65
2022/08/15 10:45:35;;;;;;;2.93;2.80;;;25.10;43.50;;;;;;5078350;28;20444;-65
2022/08/15 10:48:08;;;;;;;2.83;2.63;;;25.10;43.60;;;;;;5069583;28;20528;-61
2022/08/15 10:51:01;;;;;;;2.83;2.60;;;25.10;43.60;;;;;;5077307;28;21748;-62
2022/08/15 10:53:32;;;;;;;2.77;2.57;;;25.10;43.60;;;;;;5076953;27;20506;-61
2022/08/15 10:56:18;;;;;;;3.30;3.10;;;25.10;43.60;;;;;;5070950;27;21141;-65
2022/08/15 10:58:45;;;;;;;3.13;2.93;;;25.10;43.60;;;;;;5076804;28;20955;-65
2022/08/15 11:01:23;;;;;;;2.80;2.67;;;25.10;43.60;;;;;;5071556;28;20731;-62
2022/08/15 11:04:02;;;;;;;3.00;2.53;;;25.10;43.60;;;;;;5071267;27;20465;-61
2022/08/15 11:06:29;;;;;;;2.63;2.53;;;25.10;43.60;;;;;;5077416;27;20882;-61
2022/08/15 11:09:03;;;;;;;3.00;2.90;;;25.10;43.60;;;;;;5076249;27;20452;-62
2022/08/15 11:11:50;;;;;;;2.87;2.60;;;25.10;43.70;;;;;;5069992;27;21037;-61
2022/08/15 11:14:24;;;;;;;2.77;2.67;;;25.10;43.60;;;;;;5077296;28;20503;-60
2022/08/15 11:16:51;;;;;;;3.50;3.20;;;25.10;43.60;;;;;;5075555;28;20507;-60
2022/08/15 11:19:30;;;;;;;3.40;3.20;;;25.10;43.60;;;;;;5077416;27;21013;-64
2022/08/15 11:22:03;;;;;;;2.77;2.67;;;25.10;43.60;;;;;;5079373;28;20444;-64
2022/08/15 11:24:33;;;;;;;3.10;2.90;;;25.10;43.60;;;;;;5079594;28;20448;-61
2022/08/15 11:27:21;;;;;;;3.30;3.10;;;25.10;43.60;;;;;;5079810;28;20475;-64
2022/08/15 11:29:49;;;;;;;3.07;2.87;;;25.10;43.60;;;;;;5075149;27;20796;-64
2022/08/15 11:32:31;;;;;;;2.83;2.73;;;25.10;43.60;;;;;;5075413;27;20462;-61
2022/08/15 11:34:59;;;;;;;2.93;2.70;;;25.10;43.60;;;;;;5077147;27;20464;-61
2022/08/15 11:37:39;;;;;;;2.77;2.60;;;25.10;43.60;;;;;;5080042;27;20467;-61
2022/08/15 11:40:18;;;;;;;3.37;3.17;;;25.10;43.60;;;;;;5073834;27;20442;-61
2022/08/15 11:42:46;;;;;;;2.77;2.60;;;25.10;43.60;;;;;;5078650;27;20487;-66
2022/08/15 11:45:26;;;;;;;2.90;2.70;;;25.10;43.60;;;;;;5072449;28;20548;-61
2022/08/15 11:47:55;;;;;;;3.30;3.10;;;25.10;43.60;;;;;;5076767;28;20777;-61
2022/08/15 11:50:38;;;;;;;2.70;2.60;;;25.10;43.60;;;;;;5065901;28;20735;-62
2022/08/15 11:53:08;;;;;;;3.03;2.90;;;25.10;43.60;;;;;;5066900;27;20530;-60
2022/08/15 11:55:33;;;;;;;2.83;2.73;;;25.10;43.60;;;;;;5078048;28;20793;-63
2022/08/15 11:58:20;;;;;;;3.27;3.07;;;25.10;43.60;;;;;;5077110;27;20465;-64
2022/08/15 12:00:53;;;;;;;3.57;3.40;;;25.10;43.60;;;;;;5064952;27;20238;-60
2022/08/15 12:03:32;;;;;;;2.77;2.57;;;25.10;43.60;;;;;;5082201;28;20474;-65
2022/08/15 12:06:37;;;;;;;2.77;2.67;;;25.10;43.60;;;;;;5077675;28;20533;-60
2022/08/15 12:09:14;;;;;;;3.27;3.07;;;25.10;43.60;;;;;;5071734;28;20490;-63
2022/08/15 12:11:46;;;;;;;3.20;3.00;;;25.10;43.60;;;;;;5071568;27;20460;-62
2022/08/15 12:14:27;;;;;;;2.67;2.57;;;25.10;43.70;;;;;;5071811;28;20540;-60
2022/08/15 12:16:54;;;;;;;3.20;2.90;;;25.10;43.60;;;;;;5074173;27;20449;-60
2022/08/15 12:19:35;;;;;;;3.20;3.00;;;25.10;43.60;;;;;;5077387;28;20498;-61
2022/08/15 12:22:06;;;;;;;3.40;3.10;;;25.10;43.70;;;;;;5074783;27;20508;-63
2022/08/15 12:24:35;;;;;;;2.90;2.80;;;25.10;44.40;;;;;;5076790;27;20453;-62
2022/08/15 12:27:01;;;;;;;2.90;2.80;;;25.10;43.60;;;;;;5080377;27;20445;-63
2022/08/15 12:29:31;;;;;;;3.40;3.20;;;25.10;43.60;;;;;;5077308;27;20482;-60
2022/08/15 12:31:58;;;;;;;2.97;2.87;;;25.10;43.70;;;;;;5078675;28;20847;-63
2022/08/15 12:34:54;;;;;;;2.80;2.70;;;25.10;43.70;;;;;;5077796;28;20449;-62
2022/08/15 12:37:25;;;;;;;3.30;3.10;;;25.10;43.70;;;;;;5064741;27;20495;-61
2022/08/15 12:39:59;;;;;;;2.73;2.63;;;25.10;43.80;;;;;;5081456;27;21117;-60
2022/08/15 12:42:31;;;;;;;3.60;3.40;;;25.10;43.90;;;;;;5075579;27;20476;-64
2022/08/15 12:45:00;;;;;;;2.70;2.60;;;25.10;43.80;;;;;;5075578;27;20969;-61
2022/08/15 12:47:30;;;;;;;3.07;2.97;;;25.10;43.90;;;;;;5076149;28;20433;-63
2022/08/15 12:49:56;;;;;;;3.10;2.90;;;25.10;43.90;;;;;;5074471;28;21004;-62
2022/08/15 12:52:22;;;;;;;2.83;2.63;;;25.10;43.90;;;;;;5078908;27;20603;-65
2022/08/15 12:54:51;;;;;;;3.40;3.20;;;25.10;44.00;;;;;;5080506;28;21085;-62
2022/08/15 12:57:17;;;;;;;3.50;3.30;;;25.10;44.00;;;;;;5081699;27;21073;-62
2022/08/15 12:59:43;;;;;;;3.53;3.33;;;25.10;44.00;;;;;;5083930;27;20524;-63
2022/08/15 13:02:11;;;;;;;3.07;2.93;;;;;;;;;;5071370;28;20343;-61
2022/08/15 13:04:38;;;;;;;3.40;3.20;;;25.10;43.00;;;;;;5082941;27;20428;-61
2022/08/15 13:07:03;;;;;;;3.60;3.30;;;25.10;43.60;;;;;;5068195;28;20484;-64
2022/08/15 13:09:32;;;;;;;3.33;3.13;;;25.10;43.60;;;;;;5081127;27;20488;-61
2022/08/15 13:12:02;;;;;;;3.27;3.07;;;25.10;44.40;;;;;;5082151;27;20233;-62
2022/08/15 13:14:28;;;;;;;3.57;3.37;;;25.10;43.60;;;;;;5081255;27;20441;-61
2022/08/15 13:16:54;;;;;;;3.37;3.17;;;25.10;43.60;;;;;;5079414;27;20461;-60
2022/08/15 13:19:28;;;;;;;2.67;2.50;;;25.10;43.60;;;;;;5080799;27;20457;-61
2022/08/15 13:24:40;;;;;;;3.00;2.80;;;25.10;43.60;;;;;;5076687;27;20841;-65
2022/08/15 13:27:07;;;;;;;3.30;3.20;;;25.10;43.60;;;;;;5072815;27;20437;-62